Sid Moller — WDF9421 — position and weather

sailwx.info

Track history (hours):
 
Tides and Currents Weather Stations Pressure Air Temp Water Temp Dewpoint Dewpoint Depression Visibility Wind Speed Wind Dir Waves Ship Positions

Sid Moller

Owner: Genesis Marine, LLC, Houston, TX. More information available from US FCC via Universal Licensing System and Coast Guard Vessel Documentation Center.

Last reported at 2017-Jun-18 13:58 UTC. Time now 2017-Jun-22 22:24 UTC.
Position N 29°50' W 091°58'.

Length 28 m; draft 3 m.

Type: . MMSI: 367504980.

Date/timePositionNaut miles runAvg speedWind from/ knotsBaromVisibWave heightAir tempDewpointWater temp
2017-Jun-18 13:58N 29°50' W 091°58'3 5.9
2017-Jun-18 13:30N 29°49' W 092°01'3 5.8
2017-Jun-18 13:01N 29°48' W 092°04'3 5.6
2017-Jun-18 12:30N 29°47' W 092°07'3 5.6
2017-Jun-18 12:01N 29°47' W 092°10'3 5.7
2017-Jun-18 11:31N 29°47' W 092°13'0 0.1
2017-Jun-18 11:00N 29°47' W 092°13'0 0.0
2017-Jun-18 10:30N 29°47' W 092°13'0 0.0
2017-Jun-18 10:00N 29°47' W 092°13'0 0.0
2017-Jun-18 09:30N 29°47' W 092°13'0 0.0
2017-Jun-18 09:00N 29°47' W 092°13'0 0.0
2017-Jun-18 08:30N 29°47' W 092°13'0 0.0
2017-Jun-18 08:00N 29°47' W 092°13'0 0.0
2017-Jun-18 07:30N 29°47' W 092°13'0 0.0
2017-Jun-18 07:00N 29°47' W 092°13'0 0.0
2017-Jun-18 06:30N 29°47' W 092°13'0 0.0
2017-Jun-18 06:00N 29°47' W 092°13'0 0.0
2017-Jun-18 05:30N 29°47' W 092°13'0 0.0
2017-Jun-18 05:00N 29°47' W 092°13'0 0.0
2017-Jun-18 04:30N 29°47' W 092°13'0 0.0
2017-Jun-18 04:00N 29°47' W 092°13'0 0.0
2017-Jun-18 03:30N 29°47' W 092°13'0 0.2
2017-Jun-18 03:00N 29°47' W 092°13'0 0.2
2017-Jun-18 02:30N 29°47' W 092°13'0 0.0
2017-Jun-18 02:00N 29°47' W 092°13'1 1.1
2017-Jun-18 01:30N 29°48' W 092°14'1 1.4
2017-Jun-18 01:00N 29°48' W 092°15'1 1.8
2017-Jun-18 00:30N 29°48' W 092°15'3 5.8
2017-Jun-18 00:00N 29°50' W 092°18'3 5.7
2017-Jun-17 23:30N 29°51' W 092°21'3 5.3
2017-Jun-17 22:54N 29°53' W 092°24'34 5.2
2017-Jun-17 16:23N 29°56' W 093°03'2 5.2
2017-Jun-17 16:00N 29°56' W 093°05'3 5.4
2017-Jun-17 15:30N 29°56' W 093°08'2 4.8
2017-Jun-17 15:00N 29°57' W 093°11'5 5.0
2017-Jun-17 14:00N 30°01' W 093°14'1 1.6
2017-Jun-17 13:30N 30°02' W 093°15'2 4.6
2017-Jun-17 13:00N 30°04' W 093°16'3 5.1
2017-Jun-17 12:30N 30°06' W 093°18'2 3.7
2017-Jun-17 12:00N 30°05' W 093°20'2 4.4
2017-Jun-17 11:30N 30°04' W 093°22'0 0.1
2017-Jun-17 11:00N 30°04' W 093°22'0 0.0
2017-Jun-17 10:30N 30°04' W 093°22'0 0.0
2017-Jun-17 10:00N 30°04' W 093°22'0 0.0
2017-Jun-17 09:30N 30°04' W 093°22'0 0.0
2017-Jun-17 09:00N 30°04' W 093°22'0 0.0
2017-Jun-17 08:30N 30°04' W 093°22'0 0.0
2017-Jun-17 08:00N 30°04' W 093°22'0 0.0
2017-Jun-17 07:30N 30°04' W 093°22'0 0.0
2017-Jun-17 07:00N 30°04' W 093°22'0 0.0
2017-Jun-17 06:30N 30°04' W 093°22'0 0.0
2017-Jun-17 06:00N 30°04' W 093°22'0 0.0
2017-Jun-17 05:30N 30°04' W 093°22'0 0.0
2017-Jun-17 05:00N 30°04' W 093°22'0 0.0
2017-Jun-17 04:30N 30°04' W 093°22'0 0.0
2017-Jun-17 04:00N 30°04' W 093°22'0 0.0
2017-Jun-17 03:30N 30°04' W 093°22'1 1.4
2017-Jun-17 03:00N 30°04' W 093°21'0 0.0
2017-Jun-17 02:30N 30°04' W 093°21'0 0.0
2017-Jun-17 02:00N 30°04' W 093°21'0 0.0
2017-Jun-17 01:30N 30°04' W 093°21'1 1.2
2017-Jun-17 01:00N 30°04' W 093°22'0 0.0
2017-Jun-17 00:30N 30°04' W 093°22'0 0.0
2017-Jun-17 00:00N 30°04' W 093°22'0 0.1
2017-Jun-16 23:31N 30°04' W 093°22'0 0.1
2017-Jun-16 23:00N 30°04' W 093°22'0 0.2
2017-Jun-16 22:30N 30°04' W 093°22'0 0.9
2017-Jun-16 22:00N 30°04' W 093°23'3 5.3
2017-Jun-16 21:30N 30°04' W 093°26'3 5.9
2017-Jun-16 21:00N 30°04' W 093°29'3 6.3
2017-Jun-16 20:30N 30°04' W 093°33'3 6.4
2017-Jun-16 20:00N 30°04' W 093°36'3 7.0
2017-Jun-16 19:30N 30°04' W 093°40'71 4.5
2017-Jun-16 03:47N 29°29' W 094°51'2 7.7
2017-Jun-16 03:30N 29°30' W 094°53'4 7.6
2017-Jun-16 03:00N 29°34' W 094°55'4 7.4
2017-Jun-16 02:30N 29°37' W 094°57'4 7.7
2017-Jun-16 02:00N 29°40' W 094°59'3 6.6
2017-Jun-16 01:30N 29°43' W 095°01'3 5.9
2017-Jun-16 01:00N 29°45' W 095°04'3 2.6
2017-Jun-15 23:57N 29°47' W 095°06'0 0.0
2017-Jun-15 22:05N 29°47' W 095°06'0 0.0
2017-Jun-15 20:49N 29°47' W 095°06'1 1.3
2017-Jun-15 19:59N 29°47' W 095°05'1 0.2
2017-Jun-15 15:37N 29°47' W 095°06'0 0.0
2017-Jun-15 14:20N 29°47' W 095°06'1 0.3
2017-Jun-15 10:43N 29°47' W 095°05'1 3.6
2017-Jun-15 10:30N 29°47' W 095°05'0 0.0
2017-Jun-14 23:09N 29°47' W 095°05'1 0.0
2017-Jun-13 18:42N 29°47' W 095°05'0 0.8
2017-Jun-13 18:17N 29°47' W 095°05'1 2.3
2017-Jun-13 17:50N 29°46' W 095°05'1 0.2
2017-Jun-13 13:55N 29°47' W 095°05'0 0.1
2017-Jun-13 10:48N 29°46' W 095°05'1 3.4
2017-Jun-13 10:29N 29°46' W 095°05'1 0.3
2017-Jun-13 07:00N 29°45' W 095°06'0 0.0
2017-Jun-13 04:06N 29°45' W 095°06'0 0.0
2017-Jun-13 03:58N 29°45' W 095°06'0 0.0
2017-Jun-13 03:27N 29°45' W 095°06'0 0.0
2017-Jun-13 03:00N 29°45' W 095°06'0 0.0
2017-Jun-13 02:30N 29°45' W 095°06'0 0.0
2017-Jun-13 01:59N 29°45' W 095°06'0 0.0
2017-Jun-12 23:55N 29°45' W 095°06'0 0.0
2017-Jun-12 22:08N 29°45' W 095°06'0 0.0
2017-Jun-12 22:00N 29°45' W 095°06'0 0.0
2017-Jun-12 21:17N 29°45' W 095°06'0 0.0
2017-Jun-12 18:12N 29°45' W 095°06'0 0.0
2017-Jun-12 18:00N 29°45' W 095°06'0 0.0
2017-Jun-12 17:05N 29°45' W 095°06'0 0.0
2017-Jun-12 12:47N 29°45' W 095°06'0 0.0
2017-Jun-12 12:19N 29°45' W 095°06'0 0.0
2017-Jun-12 11:55N 29°45' W 095°06'1 0.9
2017-Jun-12 11:09N 29°45' W 095°06'1 3.2
2017-Jun-12 10:58N 29°46' W 095°05'3 5.3
2017-Jun-12 10:28N 29°44' W 095°03'2 3.9
2017-Jun-12 10:00N 29°43' W 095°01'3 5.8
2017-Jun-12 09:30N 29°41' W 094°59'3 6.0
2017-Jun-12 09:00N 29°38' W 094°58'3 6.3
2017-Jun-12 08:30N 29°35' W 094°56'3 6.5
2017-Jun-12 08:00N 29°33' W 094°54'3 6.3
2017-Jun-12 07:30N 29°30' W 094°52'  
2017-Jun-09 16:08N 30°04' W 093°34'1 5.2
2017-Jun-09 16:00N 30°04' W 093°33'3 5.1
2017-Jun-09 15:30N 30°04' W 093°30'2 4.0
2017-Jun-09 15:00N 30°04' W 093°28'5 4.8
2017-Jun-09 14:00N 30°04' W 093°23'2 4.0
2017-Jun-09 13:30N 30°04' W 093°20'2 4.4
2017-Jun-09 13:00N 30°06' W 093°19'2 4.2
2017-Jun-09 12:30N 30°05' W 093°17'1 2.2
2017-Jun-09 12:00N 30°04' W 093°16'2 4.5
2017-Jun-09 11:30N 30°02' W 093°15'3 5.3
2017-Jun-09 11:00N 29°60' W 093°13'3 5.9
2017-Jun-09 10:30N 29°58' W 093°11'3 5.3
2017-Jun-09 10:00N 29°56' W 093°08'3 5.5
2017-Jun-09 09:30N 29°56' W 093°05'2 4.9
2017-Jun-09 09:00N 29°56' W 093°02'3 5.6
2017-Jun-09 08:30N 29°56' W 092°59'10 5.3
2017-Jun-09 06:33N 29°58' W 092°48'0 5.7
2017-Jun-09 06:30N 29°58' W 092°47'15 4.7
2017-Jun-09 03:16N 29°54' W 092°31'1 4.8
2017-Jun-09 03:00N 29°54' W 092°29'2 4.7
2017-Jun-09 02:30N 29°53' W 092°26'2 4.8
2017-Jun-09 02:00N 29°53' W 092°24'3 4.4
2017-Jun-09 01:19N 29°51' W 092°21'1 4.6
2017-Jun-09 01:00N 29°50' W 092°20'2 4.3
2017-Jun-09 00:30N 29°49' W 092°18'2 4.6
2017-Jun-09 00:00N 29°48' W 092°15'2 4.0
2017-Jun-08 23:30N 29°47' W 092°13'3 5.0
2017-Jun-08 23:00N 29°47' W 092°10'3 5.3
2017-Jun-08 22:30N 29°47' W 092°08'3 5.3
2017-Jun-08 22:00N 29°48' W 092°05'2 4.9
2017-Jun-08 21:30N 29°49' W 092°02'3 5.6
2017-Jun-08 21:00N 29°50' W 091°59'  
Track history (hours):
 
Tides and Currents Weather Stations Pressure Air Temp Water Temp Dewpoint Dewpoint Depression Visibility Wind Speed Wind Dir Waves Ship Positions

Sid Moller

Owner: Genesis Marine, LLC, Houston, TX. More information available from US FCC via Universal Licensing System and Coast Guard Vessel Documentation Center.

Last reported at 2017-Jun-18 13:58 UTC. Time now 2017-Jun-22 22:24 UTC.
Position N 29°50' W 091°58'.

Length 28 m; draft 3 m.

Type: . MMSI: 367504980.

Date/timePositionNaut miles runAvg speedWind from/ knotsBaromVisibWave heightAir tempDewpointWater temp
2017-Jun-18 13:58N 29°50' W 091°58'3 5.9
2017-Jun-18 13:30N 29°49' W 092°01'3 5.8
2017-Jun-18 13:01N 29°48' W 092°04'3 5.6
2017-Jun-18 12:30N 29°47' W 092°07'3 5.6
2017-Jun-18 12:01N 29°47' W 092°10'3 5.7
2017-Jun-18 11:31N 29°47' W 092°13'0 0.1
2017-Jun-18 11:00N 29°47' W 092°13'0 0.0
2017-Jun-18 10:30N 29°47' W 092°13'0 0.0
2017-Jun-18 10:00N 29°47' W 092°13'0 0.0
2017-Jun-18 09:30N 29°47' W 092°13'0 0.0
2017-Jun-18 09:00N 29°47' W 092°13'0 0.0
2017-Jun-18 08:30N 29°47' W 092°13'0 0.0
2017-Jun-18 08:00N 29°47' W 092°13'0 0.0
2017-Jun-18 07:30N 29°47' W 092°13'0 0.0
2017-Jun-18 07:00N 29°47' W 092°13'0 0.0
2017-Jun-18 06:30N 29°47' W 092°13'0 0.0
2017-Jun-18 06:00N 29°47' W 092°13'0 0.0
2017-Jun-18 05:30N 29°47' W 092°13'0 0.0
2017-Jun-18 05:00N 29°47' W 092°13'0 0.0
2017-Jun-18 04:30N 29°47' W 092°13'0 0.0
2017-Jun-18 04:00N 29°47' W 092°13'0 0.0
2017-Jun-18 03:30N 29°47' W 092°13'0 0.2
2017-Jun-18 03:00N 29°47' W 092°13'0 0.2
2017-Jun-18 02:30N 29°47' W 092°13'0 0.0
2017-Jun-18 02:00N 29°47' W 092°13'1 1.1
2017-Jun-18 01:30N 29°48' W 092°14'1 1.4
2017-Jun-18 01:00N 29°48' W 092°15'1 1.8
2017-Jun-18 00:30N 29°48' W 092°15'3 5.8
2017-Jun-18 00:00N 29°50' W 092°18'3 5.7
2017-Jun-17 23:30N 29°51' W 092°21'3 5.3
2017-Jun-17 22:54N 29°53' W 092°24'34 5.2
2017-Jun-17 16:23N 29°56' W 093°03'2 5.2
2017-Jun-17 16:00N 29°56' W 093°05'3 5.4
2017-Jun-17 15:30N 29°56' W 093°08'2 4.8
2017-Jun-17 15:00N 29°57' W 093°11'5 5.0
2017-Jun-17 14:00N 30°01' W 093°14'1 1.6
2017-Jun-17 13:30N 30°02' W 093°15'2 4.6
2017-Jun-17 13:00N 30°04' W 093°16'3 5.1
2017-Jun-17 12:30N 30°06' W 093°18'2 3.7
2017-Jun-17 12:00N 30°05' W 093°20'2 4.4
2017-Jun-17 11:30N 30°04' W 093°22'0 0.1
2017-Jun-17 11:00N 30°04' W 093°22'0 0.0
2017-Jun-17 10:30N 30°04' W 093°22'0 0.0
2017-Jun-17 10:00N 30°04' W 093°22'0 0.0
2017-Jun-17 09:30N 30°04' W 093°22'0 0.0
2017-Jun-17 09:00N 30°04' W 093°22'0 0.0
2017-Jun-17 08:30N 30°04' W 093°22'0 0.0
2017-Jun-17 08:00N 30°04' W 093°22'0 0.0
2017-Jun-17 07:30N 30°04' W 093°22'0 0.0
2017-Jun-17 07:00N 30°04' W 093°22'0 0.0
2017-Jun-17 06:30N 30°04' W 093°22'0 0.0
2017-Jun-17 06:00N 30°04' W 093°22'0 0.0
2017-Jun-17 05:30N 30°04' W 093°22'0 0.0
2017-Jun-17 05:00N 30°04' W 093°22'0 0.0
2017-Jun-17 04:30N 30°04' W 093°22'0 0.0
2017-Jun-17 04:00N 30°04' W 093°22'0 0.0
2017-Jun-17 03:30N 30°04' W 093°22'1 1.4
2017-Jun-17 03:00N 30°04' W 093°21'0 0.0
2017-Jun-17 02:30N 30°04' W 093°21'0 0.0
2017-Jun-17 02:00N 30°04' W 093°21'0 0.0
2017-Jun-17 01:30N 30°04' W 093°21'1 1.2
2017-Jun-17 01:00N 30°04' W 093°22'0 0.0
2017-Jun-17 00:30N 30°04' W 093°22'0 0.0
2017-Jun-17 00:00N 30°04' W 093°22'0 0.1
2017-Jun-16 23:31N 30°04' W 093°22'0 0.1
2017-Jun-16 23:00N 30°04' W 093°22'0 0.2
2017-Jun-16 22:30N 30°04' W 093°22'0 0.9
2017-Jun-16 22:00N 30°04' W 093°23'3 5.3
2017-Jun-16 21:30N 30°04' W 093°26'3 5.9
2017-Jun-16 21:00N 30°04' W 093°29'3 6.3
2017-Jun-16 20:30N 30°04' W 093°33'3 6.4
2017-Jun-16 20:00N 30°04' W 093°36'3 7.0
2017-Jun-16 19:30N 30°04' W 093°40'71 4.5
2017-Jun-16 03:47N 29°29' W 094°51'2 7.7
2017-Jun-16 03:30N 29°30' W 094°53'4 7.6
2017-Jun-16 03:00N 29°34' W 094°55'4 7.4
2017-Jun-16 02:30N 29°37' W 094°57'4 7.7
2017-Jun-16 02:00N 29°40' W 094°59'3 6.6
2017-Jun-16 01:30N 29°43' W 095°01'3 5.9
2017-Jun-16 01:00N 29°45' W 095°04'3 2.6
2017-Jun-15 23:57N 29°47' W 095°06'0 0.0
2017-Jun-15 22:05N 29°47' W 095°06'0 0.0
2017-Jun-15 20:49N 29°47' W 095°06'1 1.3
2017-Jun-15 19:59N 29°47' W 095°05'1 0.2
2017-Jun-15 15:37N 29°47' W 095°06'0 0.0
2017-Jun-15 14:20N 29°47' W 095°06'1 0.3
2017-Jun-15 10:43N 29°47' W 095°05'1 3.6
2017-Jun-15 10:30N 29°47' W 095°05'0 0.0
2017-Jun-14 23:09N 29°47' W 095°05'1 0.0
2017-Jun-13 18:42N 29°47' W 095°05'0 0.8
2017-Jun-13 18:17N 29°47' W 095°05'1 2.3
2017-Jun-13 17:50N 29°46' W 095°05'1 0.2
2017-Jun-13 13:55N 29°47' W 095°05'0 0.1
2017-Jun-13 10:48N 29°46' W 095°05'1 3.4
2017-Jun-13 10:29N 29°46' W 095°05'1 0.3
2017-Jun-13 07:00N 29°45' W 095°06'0 0.0
2017-Jun-13 04:06N 29°45' W 095°06'0 0.0
2017-Jun-13 03:58N 29°45' W 095°06'0 0.0
2017-Jun-13 03:27N 29°45' W 095°06'0 0.0
2017-Jun-13 03:00N 29°45' W 095°06'0 0.0
2017-Jun-13 02:30N 29°45' W 095°06'0 0.0
2017-Jun-13 01:59N 29°45' W 095°06'0 0.0
2017-Jun-12 23:55N 29°45' W 095°06'0 0.0
2017-Jun-12 22:08N 29°45' W 095°06'0 0.0
2017-Jun-12 22:00N 29°45' W 095°06'0 0.0
2017-Jun-12 21:17N 29°45' W 095°06'0 0.0
2017-Jun-12 18:12N 29°45' W 095°06'0 0.0
2017-Jun-12 18:00N 29°45' W 095°06'0 0.0
2017-Jun-12 17:05N 29°45' W 095°06'0 0.0
2017-Jun-12 12:47N 29°45' W 095°06'0 0.0
2017-Jun-12 12:19N 29°45' W 095°06'0 0.0
2017-Jun-12 11:55N 29°45' W 095°06'1 0.9
2017-Jun-12 11:09N 29°45' W 095°06'1 3.2
2017-Jun-12 10:58N 29°46' W 095°05'3 5.3
2017-Jun-12 10:28N 29°44' W 095°03'2 3.9
2017-Jun-12 10:00N 29°43' W 095°01'3 5.8
2017-Jun-12 09:30N 29°41' W 094°59'3 6.0
2017-Jun-12 09:00N 29°38' W 094°58'3 6.3
2017-Jun-12 08:30N 29°35' W 094°56'3 6.5
2017-Jun-12 08:00N 29°33' W 094°54'3 6.3
2017-Jun-12 07:30N 29°30' W 094°52'  
2017-Jun-09 16:08N 30°04' W 093°34'1 5.2
2017-Jun-09 16:00N 30°04' W 093°33'3 5.1
2017-Jun-09 15:30N 30°04' W 093°30'2 4.0
2017-Jun-09 15:00N 30°04' W 093°28'5 4.8
2017-Jun-09 14:00N 30°04' W 093°23'2 4.0
2017-Jun-09 13:30N 30°04' W 093°20'2 4.4
2017-Jun-09 13:00N 30°06' W 093°19'2 4.2
2017-Jun-09 12:30N 30°05' W 093°17'1 2.2
2017-Jun-09 12:00N 30°04' W 093°16'2 4.5
2017-Jun-09 11:30N 30°02' W 093°15'3 5.3
2017-Jun-09 11:00N 29°60' W 093°13'3 5.9
2017-Jun-09 10:30N 29°58' W 093°11'3 5.3
2017-Jun-09 10:00N 29°56' W 093°08'3 5.5
2017-Jun-09 09:30N 29°56' W 093°05'2 4.9
2017-Jun-09 09:00N 29°56' W 093°02'3 5.6
2017-Jun-09 08:30N 29°56' W 092°59'10 5.3
2017-Jun-09 06:33N 29°58' W 092°48'0 5.7
2017-Jun-09 06:30N 29°58' W 092°47'15 4.7
2017-Jun-09 03:16N 29°54' W 092°31'1 4.8
2017-Jun-09 03:00N 29°54' W 092°29'2 4.7
2017-Jun-09 02:30N 29°53' W 092°26'2 4.8
2017-Jun-09 02:00N 29°53' W 092°24'3 4.4
2017-Jun-09 01:19N 29°51' W 092°21'1 4.6
2017-Jun-09 01:00N 29°50' W 092°20'2 4.3
2017-Jun-09 00:30N 29°49' W 092°18'2 4.6
2017-Jun-09 00:00N 29°48' W 092°15'2 4.0
2017-Jun-08 23:30N 29°47' W 092°13'3 5.0
2017-Jun-08 23:00N 29°47' W 092°10'3 5.3
2017-Jun-08 22:30N 29°47' W 092°08'3 5.3
2017-Jun-08 22:00N 29°48' W 092°05'2 4.9
2017-Jun-08 21:30N 29°49' W 092°02'3 5.6
2017-Jun-08 21:00N 29°50' W 091°59'  

Dump ship's entire track history